createdAt,value
2019-02-20T00:00:42.068Z,917.14
2019-02-20T00:01:42.056Z,917.14
2019-02-20T00:02:42.043Z,917.12
2019-02-20T00:03:42.034Z,917.14
2019-02-20T00:04:42.028Z,917.13
2019-02-20T00:05:42.012Z,917.08
2019-02-20T00:06:42.019Z,917.12
2019-02-20T00:07:42.000Z,917.10
2019-02-20T00:08:41.978Z,917.00
2019-02-20T00:09:41.976Z,916.94
2019-02-20T00:10:41.957Z,916.95
2019-02-20T00:11:41.950Z,916.99
2019-02-20T00:12:41.937Z,917.03
2019-02-20T00:13:42.224Z,917.00
2019-02-20T00:14:41.917Z,916.96
2019-02-20T00:15:41.907Z,916.93
2019-02-20T00:16:41.894Z,917.00
2019-02-20T00:17:41.887Z,916.94
2019-02-20T00:18:41.874Z,916.97
2019-02-20T00:19:41.865Z,916.94
2019-02-20T00:20:41.855Z,916.92
2019-02-20T00:22:41.828Z,916.87
2019-02-20T00:28:41.766Z,916.85
2019-02-20T00:29:41.753Z,916.86
2019-02-20T00:30:41.763Z,916.86
2019-02-20T00:31:41.737Z,916.93
2019-02-20T00:32:41.728Z,916.89
2019-02-20T00:33:41.713Z,916.88
2019-02-20T00:34:41.699Z,916.90
2019-02-20T00:35:41.693Z,916.93
2019-02-20T00:36:41.677Z,916.97
2019-02-20T00:37:41.668Z,917.03
2019-02-20T00:38:41.666Z,917.00
2019-02-20T00:39:41.647Z,916.99
2019-02-20T00:40:41.634Z,916.97
2019-02-20T00:41:41.624Z,916.94
2019-02-20T00:42:41.613Z,916.97
2019-02-20T00:43:41.603Z,916.96
2019-02-20T00:44:41.591Z,916.93
2019-02-20T00:45:41.583Z,916.98
2019-02-20T00:46:41.569Z,916.95
2019-02-20T00:47:41.561Z,916.92
2019-02-20T00:48:41.549Z,916.93
2019-02-20T00:49:41.536Z,916.89
2019-02-20T00:50:41.544Z,916.91
2019-02-20T00:51:41.517Z,916.94
2019-02-20T00:52:49.555Z,916.96
2019-02-20T00:53:42.596Z,916.96
2019-02-20T00:54:41.487Z,916.93
2019-02-20T00:55:41.476Z,916.89
2019-02-20T00:56:41.464Z,917.00
2019-02-20T00:57:41.450Z,916.95
2019-02-20T00:58:41.441Z,916.95
2019-02-20T00:59:41.433Z,916.91
2019-02-20T01:11:41.302Z,917.08
2019-02-20T01:12:41.308Z,917.09
2019-02-20T01:13:41.384Z,917.10
2019-02-20T01:14:41.271Z,917.16
2019-02-20T01:15:41.258Z,917.17
2019-02-20T01:16:41.263Z,917.22
2019-02-20T01:17:41.238Z,917.23
2019-02-20T01:18:41.226Z,917.23
2019-02-20T01:19:41.218Z,917.24
2019-02-20T01:20:41.210Z,917.26
2019-02-20T01:21:41.195Z,917.27
2019-02-20T01:22:41.183Z,917.29
2019-02-20T01:23:41.177Z,917.30
2019-02-20T01:24:41.165Z,917.30
2019-02-20T01:25:41.151Z,917.33
2019-02-20T01:26:41.140Z,917.38
2019-02-20T01:27:41.129Z,917.40
2019-02-20T01:28:41.118Z,917.42
2019-02-20T01:29:41.121Z,917.40
2019-02-20T01:30:41.101Z,917.43
2019-02-20T01:31:41.093Z,917.43
2019-02-20T01:32:41.075Z,917.41
2019-02-20T01:33:41.068Z,917.38
2019-02-20T01:34:41.057Z,917.41
2019-02-20T01:35:41.041Z,917.37
2019-02-20T01:36:41.038Z,917.38
2019-02-20T01:37:41.021Z,917.39
2019-02-20T01:38:41.010Z,917.37
2019-02-20T01:39:41.002Z,917.31
2019-02-20T01:40:40.991Z,917.36
2019-02-20T01:41:40.980Z,917.39
2019-02-20T01:42:40.968Z,917.43
2019-02-20T01:43:40.965Z,917.39
2019-02-20T01:44:40.949Z,917.43
2019-02-20T01:45:40.942Z,917.43
2019-02-20T01:46:40.926Z,917.48
2019-02-20T01:47:40.914Z,917.48
2019-02-20T01:48:40.903Z,917.47
2019-02-20T01:49:40.890Z,917.46
2019-02-20T01:50:40.880Z,917.43
2019-02-20T01:51:40.872Z,917.41
2019-02-20T01:52:40.962Z,917.39
2019-02-20T01:53:40.850Z,917.39
2019-02-20T01:54:40.848Z,917.38
2019-02-20T01:55:40.831Z,917.35
2019-02-20T01:56:40.820Z,917.40
2019-02-20T01:57:40.809Z,917.44
2019-02-20T01:58:40.796Z,917.41
2019-02-20T01:59:40.784Z,917.43
2019-02-20T02:00:40.782Z,917.48
2019-02-20T02:01:40.764Z,917.44
2019-02-20T02:02:40.755Z,917.46
2019-02-20T02:03:40.742Z,917.45
2019-02-20T02:04:40.731Z,917.44
2019-02-20T02:05:40.722Z,917.44
2019-02-20T02:06:40.710Z,917.49
2019-02-20T02:07:40.699Z,917.48
2019-02-20T02:08:40.688Z,917.49
2019-02-20T02:09:40.680Z,917.48
2019-02-20T02:10:40.778Z,917.49
2019-02-20T02:11:40.660Z,917.55
2019-02-20T02:12:40.648Z,917.54
2019-02-20T02:13:40.648Z,917.58
2019-02-20T02:14:40.624Z,917.56
2019-02-20T02:15:40.616Z,917.60
2019-02-20T02:16:40.602Z,917.58
2019-02-20T02:17:40.594Z,917.56
2019-02-20T02:18:40.582Z,917.52
2019-02-20T02:19:40.570Z,917.56
2019-02-20T02:20:40.559Z,917.60
2019-02-20T02:21:40.551Z,917.60
2019-02-20T02:22:40.543Z,917.64
2019-02-20T02:23:40.532Z,917.61
2019-02-20T02:24:40.522Z,917.61
2019-02-20T02:25:40.511Z,917.57
2019-02-20T02:26:40.499Z,917.55
2019-02-20T02:27:40.485Z,917.60
2019-02-20T02:28:40.476Z,917.57
2019-02-20T02:29:40.466Z,917.57
2019-02-20T02:30:40.460Z,917.55
2019-02-20T02:31:40.440Z,917.56
2019-02-20T02:32:40.432Z,917.53
2019-02-20T02:33:40.423Z,917.50
2019-02-20T02:34:40.413Z,917.52
2019-02-20T02:35:40.399Z,917.53
2019-02-20T02:36:40.495Z,917.53
2019-02-20T02:37:40.382Z,917.58
2019-02-20T02:38:40.475Z,917.60
2019-02-20T02:39:40.358Z,917.67
2019-02-20T02:40:40.351Z,917.71
2019-02-20T02:41:40.337Z,917.74
2019-02-20T02:42:40.329Z,917.82
2019-02-20T02:43:40.321Z,917.82
2019-02-20T02:44:40.305Z,917.87
2019-02-20T02:45:40.293Z,917.90
2019-02-20T02:46:40.284Z,917.89
2019-02-20T02:47:40.275Z,917.93
2019-02-20T02:48:40.260Z,917.94
2019-02-20T02:49:40.248Z,917.92
2019-02-20T02:50:40.342Z,917.98
2019-02-20T02:51:40.231Z,917.98
2019-02-20T02:52:40.224Z,918.01
2019-02-20T02:53:40.206Z,918.06
2019-02-20T02:54:40.200Z,918.10
2019-02-20T02:55:40.183Z,918.12
2019-02-20T02:56:40.180Z,918.14
2019-02-20T02:57:40.163Z,918.12
2019-02-20T02:58:40.154Z,918.14
2019-02-20T02:59:40.142Z,918.18
2019-02-20T03:00:40.134Z,918.20
2019-02-20T03:01:40.123Z,918.19
2019-02-20T03:02:40.109Z,918.23
2019-02-20T03:03:40.105Z,918.22
2019-02-20T03:04:40.086Z,918.23
2019-02-20T03:05:40.078Z,918.25
2019-02-20T03:06:40.067Z,918.28
2019-02-20T03:07:40.074Z,918.33
2019-02-20T03:08:40.046Z,918.30
2019-02-20T03:09:40.040Z,918.29
2019-02-20T03:10:40.025Z,918.31
2019-02-20T03:11:40.365Z,918.36
2019-02-20T03:12:40.004Z,918.38
2019-02-20T03:13:39.991Z,918.41
2019-02-20T03:14:39.980Z,918.42
2019-02-20T03:15:39.973Z,918.46
2019-02-20T03:16:39.960Z,918.47
2019-02-20T03:17:39.959Z,918.46
2019-02-20T03:18:39.938Z,918.51
2019-02-20T03:19:39.928Z,918.55
2019-02-20T03:20:39.914Z,918.57
2019-02-20T03:21:39.902Z,918.57
2019-02-20T03:22:39.896Z,918.59
2019-02-20T03:23:40.575Z,918.70
2019-02-20T03:24:39.877Z,918.62
2019-02-20T03:25:39.859Z,918.70
2019-02-20T03:26:39.853Z,918.77
2019-02-20T03:27:39.842Z,918.72
2019-02-20T03:28:40.270Z,918.80
2019-02-20T03:29:39.820Z,918.82
2019-02-20T03:30:39.809Z,918.80
2019-02-20T03:31:39.801Z,918.80
2019-02-20T03:32:39.805Z,918.78
2019-02-20T03:33:39.789Z,918.83
2019-02-20T03:34:39.767Z,918.75
2019-02-20T03:35:39.754Z,918.79
2019-02-20T03:36:39.744Z,918.84
2019-02-20T03:37:39.735Z,918.86
2019-02-20T03:38:39.726Z,918.85
2019-02-20T03:39:39.710Z,918.89
2019-02-20T03:40:39.699Z,918.93
2019-02-20T03:41:39.695Z,919.00
2019-02-20T03:42:39.685Z,918.94
2019-02-20T03:43:39.668Z,918.97
2019-02-20T03:44:39.662Z,919.01
2019-02-20T03:45:39.642Z,919.01
2019-02-20T03:46:39.637Z,919.08
2019-02-20T03:47:39.621Z,919.06
2019-02-20T03:48:39.613Z,919.11
2019-02-20T03:49:39.599Z,919.11
2019-02-20T03:50:39.594Z,919.14
2019-02-20T03:51:39.576Z,919.14
2019-02-20T03:52:39.567Z,919.20
2019-02-20T03:53:39.557Z,919.22
2019-02-20T03:54:39.547Z,919.21
2019-02-20T03:55:39.534Z,919.26
2019-02-20T03:56:39.525Z,919.32
2019-02-20T03:57:39.516Z,919.37
2019-02-20T03:58:39.505Z,919.37
2019-02-20T03:59:39.499Z,919.40
2019-02-20T04:00:39.480Z,919.37
2019-02-20T04:01:39.469Z,919.43
2019-02-20T04:02:39.457Z,919.40
2019-02-20T04:03:39.447Z,919.45
2019-02-20T04:04:39.437Z,919.45
2019-02-20T04:05:39.430Z,919.52
2019-02-20T04:06:39.413Z,919.53
2019-02-20T04:07:39.403Z,919.58
2019-02-20T04:08:39.495Z,919.56
2019-02-20T04:09:39.382Z,919.61
2019-02-20T04:10:39.374Z,919.63
2019-02-20T04:11:39.366Z,919.62
2019-02-20T04:12:39.454Z,919.65
2019-02-20T04:13:39.336Z,919.66
2019-02-20T04:14:39.337Z,919.61
2019-02-20T04:15:39.320Z,919.65
2019-02-20T04:16:39.318Z,919.67
2019-02-20T04:17:39.298Z,919.68
2019-02-20T04:18:39.287Z,919.66
2019-02-20T04:19:39.276Z,919.73
2019-02-20T04:20:39.267Z,919.78
2019-02-20T04:21:39.260Z,919.76
2019-02-20T04:22:39.243Z,919.84
2019-02-20T04:23:39.233Z,919.81
2019-02-20T04:24:39.220Z,919.86
2019-02-20T04:25:39.214Z,919.90
2019-02-20T04:26:39.201Z,919.96
2019-02-20T04:27:39.190Z,919.93
2019-02-20T04:28:39.185Z,920.00
2019-02-20T04:29:39.168Z,920.05
2019-02-20T04:30:39.162Z,919.97
2019-02-20T04:31:39.153Z,919.98
2019-02-20T04:32:39.142Z,920.00
2019-02-20T04:33:39.130Z,919.98
2019-02-20T04:34:39.120Z,920.12
2019-02-20T04:35:39.106Z,920.08
2019-02-20T04:36:39.094Z,920.05
2019-02-20T04:37:39.115Z,920.08
2019-02-20T04:38:39.075Z,920.08
2019-02-20T04:39:39.066Z,920.09
2019-02-20T04:40:39.052Z,920.09
2019-02-20T04:41:39.040Z,920.13
2019-02-20T04:42:39.034Z,920.18
2019-02-20T04:43:39.025Z,920.11
2019-02-20T04:44:39.013Z,920.15
2019-02-20T04:45:39.002Z,920.15
2019-02-20T04:46:38.988Z,920.09
2019-02-20T04:47:38.983Z,920.10
2019-02-20T04:48:39.081Z,920.11
2019-02-20T04:49:38.962Z,920.13
2019-02-20T04:50:38.964Z,920.16
2019-02-20T04:51:38.939Z,920.19
2019-02-20T04:52:38.929Z,920.18
2019-02-20T04:53:38.920Z,920.16
2019-02-20T04:54:38.906Z,920.17
2019-02-20T04:55:38.896Z,920.13
2019-02-20T04:56:38.887Z,920.17
2019-02-20T04:57:38.879Z,920.17
2019-02-20T04:58:38.865Z,920.12
2019-02-20T04:59:38.862Z,920.13
2019-02-20T05:00:38.845Z,920.14
2019-02-20T05:01:39.038Z,920.15
2019-02-20T05:03:06.607Z,920.17
2019-02-20T05:04:06.500Z,920.16
2019-02-20T05:05:06.482Z,920.19
2019-02-20T05:06:06.475Z,920.20
2019-02-20T05:07:06.667Z,920.21
2019-02-20T05:08:06.455Z,920.19
2019-02-20T05:09:06.558Z,920.21
2019-02-20T05:10:06.437Z,920.17
2019-02-20T05:11:06.425Z,920.25
2019-02-20T05:12:06.408Z,920.19
2019-02-20T05:13:06.400Z,920.25
2019-02-20T05:14:06.407Z,920.28
2019-02-20T05:15:06.414Z,920.32
2019-02-20T05:16:06.367Z,920.35
2019-02-20T05:17:06.356Z,920.36
2019-02-20T05:18:06.349Z,920.32
2019-02-20T05:19:06.340Z,920.32
2019-02-20T05:20:06.326Z,920.31
2019-02-20T05:21:06.315Z,920.38
2019-02-20T05:22:06.311Z,920.34
2019-02-20T05:23:06.297Z,920.38
2019-02-20T05:24:06.284Z,920.36
2019-02-20T05:25:06.283Z,920.39
2019-02-20T05:26:06.262Z,920.40
2019-02-20T05:27:06.256Z,920.42
2019-02-20T05:28:06.239Z,920.39
2019-02-20T05:29:06.236Z,920.43
2019-02-20T05:30:06.219Z,920.43
2019-02-20T05:31:06.208Z,920.44
2019-02-20T05:32:06.196Z,920.51
2019-02-20T05:33:06.186Z,920.50
2019-02-20T05:34:06.188Z,920.47
2019-02-20T05:35:06.190Z,920.49
2019-02-20T05:36:06.177Z,920.55
2019-02-20T05:37:06.147Z,920.54
2019-02-20T05:38:06.131Z,920.56
2019-02-20T05:39:06.118Z,920.53
2019-02-20T05:40:06.111Z,920.56
2019-02-20T05:41:06.097Z,920.46
2019-02-20T05:42:06.083Z,920.52
2019-02-20T05:43:06.078Z,920.51
2019-02-20T05:44:06.068Z,920.51
2019-02-20T05:45:06.051Z,920.56
2019-02-20T05:46:06.041Z,920.62
2019-02-20T05:47:06.035Z,920.63
2019-02-20T05:48:06.019Z,920.63
2019-02-20T05:49:06.013Z,920.67
2019-02-20T05:50:06.000Z,920.68
2019-02-20T05:51:05.992Z,920.71
2019-02-20T05:52:05.980Z,920.65
2019-02-20T05:53:05.967Z,920.72
2019-02-20T05:54:05.949Z,920.73
2019-02-20T05:55:05.946Z,920.70
2019-02-20T05:56:05.953Z,920.71
2019-02-20T05:57:05.922Z,920.78
2019-02-20T05:58:05.910Z,920.79
2019-02-20T05:59:05.896Z,920.84
2019-02-20T06:00:05.885Z,920.84
2019-02-20T06:01:05.874Z,920.83
2019-02-20T06:02:05.871Z,920.85
2019-02-20T06:03:05.859Z,920.85
2019-02-20T06:04:05.996Z,920.92
2019-02-20T06:05:05.838Z,921.00
2019-02-20T06:06:05.817Z,921.02
2019-02-20T06:07:05.808Z,920.99
2019-02-20T06:08:05.796Z,921.02
2019-02-20T06:09:05.810Z,921.04
2019-02-20T06:10:05.771Z,921.06
2019-02-20T06:11:14.410Z,921.12
2019-02-20T06:12:06.859Z,921.08
2019-02-20T06:13:05.738Z,921.10
2019-02-20T06:14:05.730Z,921.03
2019-02-20T06:15:05.724Z,921.00
2019-02-20T06:16:05.709Z,921.02
2019-02-20T06:17:05.698Z,921.07
2019-02-20T06:18:05.689Z,921.07
2019-02-20T06:19:05.674Z,921.08
2019-02-20T06:20:05.665Z,921.13
2019-02-20T06:21:05.652Z,921.09
2019-02-20T06:22:05.647Z,921.17
2019-02-20T06:23:05.630Z,921.26
2019-02-20T06:24:05.619Z,921.18
2019-02-20T06:25:05.613Z,921.19
2019-02-20T06:26:05.612Z,921.28
2019-02-20T06:27:07.887Z,921.19
2019-02-20T06:28:05.580Z,921.23
2019-02-20T06:29:05.568Z,921.28
2019-02-20T06:30:05.558Z,921.24
2019-02-20T06:31:05.542Z,921.28
2019-02-20T06:32:05.531Z,921.31
2019-02-20T06:33:05.526Z,921.27
2019-02-20T06:34:05.552Z,921.34
2019-02-20T06:35:05.494Z,921.35
2019-02-20T06:36:05.483Z,921.33
2019-02-20T06:37:05.477Z,921.43
2019-02-20T06:38:05.469Z,921.46
2019-02-20T06:39:05.455Z,921.55
2019-02-20T06:40:05.439Z,921.48
2019-02-20T06:41:05.428Z,921.45
2019-02-20T06:42:05.425Z,921.48
2019-02-20T06:43:05.406Z,921.58
2019-02-20T06:44:05.399Z,921.62
2019-02-20T06:45:05.385Z,921.58
2019-02-20T06:46:05.380Z,921.57
2019-02-20T06:47:05.360Z,921.61
2019-02-20T06:48:05.353Z,921.59
2019-02-20T06:49:05.345Z,921.62
2019-02-20T06:50:05.329Z,921.64
2019-02-20T06:51:05.318Z,921.62
2019-02-20T06:52:05.305Z,921.70
2019-02-20T06:53:05.301Z,921.66
2019-02-20T06:54:05.286Z,921.69
2019-02-20T06:55:05.281Z,921.59
2019-02-20T06:56:05.263Z,921.56
2019-02-20T06:57:05.258Z,921.56
2019-02-20T06:58:05.251Z,921.63
2019-02-20T06:59:05.228Z,921.65
2019-02-20T07:00:05.223Z,921.70
2019-02-20T07:01:05.208Z,921.75
2019-02-20T07:02:05.199Z,921.75
2019-02-20T07:03:05.284Z,921.78
2019-02-20T07:04:05.173Z,921.76
2019-02-20T07:05:05.264Z,921.76
2019-02-20T07:06:05.154Z,921.74
2019-02-20T07:07:05.145Z,921.83
2019-02-20T07:08:05.139Z,921.77
2019-02-20T07:09:05.222Z,921.74
2019-02-20T07:10:05.115Z,921.77
2019-02-20T07:11:05.101Z,921.77
2019-02-20T07:12:05.092Z,921.81
2019-02-20T07:13:05.079Z,921.77
2019-02-20T07:14:05.069Z,921.75
2019-02-20T07:15:05.059Z,921.78
2019-02-20T07:16:05.047Z,921.80
2019-02-20T07:17:05.047Z,921.84
2019-02-20T07:18:05.034Z,921.81
2019-02-20T07:19:05.015Z,921.85
2019-02-20T07:20:05.005Z,921.78
2019-02-20T07:21:04.998Z,921.75
2019-02-20T07:22:04.983Z,921.85
2019-02-20T07:23:04.971Z,921.79
2019-02-20T07:24:04.984Z,921.78
2019-02-20T07:25:04.952Z,921.83
2019-02-20T07:26:04.945Z,921.84
2019-02-20T07:27:04.928Z,921.84
2019-02-20T07:28:04.921Z,921.83
2019-02-20T07:29:04.912Z,921.75
2019-02-20T07:30:04.897Z,921.81
2019-02-20T07:31:04.892Z,921.82
2019-02-20T07:32:04.876Z,921.80
2019-02-20T07:33:04.870Z,921.78
2019-02-20T07:34:05.478Z,921.86
2019-02-20T07:35:04.842Z,921.78
2019-02-20T07:36:04.840Z,921.84
2019-02-20T07:37:04.823Z,921.81
2019-02-20T07:38:04.815Z,921.84
2019-02-20T07:39:04.799Z,921.86
2019-02-20T07:40:04.788Z,921.85
2019-02-20T07:41:04.779Z,921.82
2019-02-20T07:42:04.781Z,921.90
2019-02-20T07:43:04.755Z,921.84
2019-02-20T07:44:04.746Z,921.87
2019-02-20T07:45:04.733Z,921.83
2019-02-20T07:46:04.726Z,921.77
2019-02-20T07:47:04.726Z,921.83
2019-02-20T07:48:04.702Z,921.89
2019-02-20T07:49:04.688Z,921.89
2019-02-20T07:50:04.679Z,921.78
2019-02-20T07:51:04.670Z,921.83
2019-02-20T07:52:04.657Z,921.83
2019-02-20T07:53:04.649Z,921.86
2019-02-20T07:54:04.682Z,921.89
2019-02-20T07:55:12.892Z,921.82
2019-02-20T07:56:05.717Z,921.87
2019-02-20T07:57:04.603Z,921.92
2019-02-20T07:58:04.591Z,921.92
2019-02-20T07:59:04.581Z,921.93
2019-02-20T08:00:04.575Z,921.92
2019-02-20T08:01:04.562Z,921.89
2019-02-20T08:02:04.547Z,921.97
2019-02-20T08:03:04.541Z,921.97
2019-02-20T08:04:05.079Z,922.01
2019-02-20T08:05:04.517Z,921.97
2019-02-20T08:06:04.508Z,922.00
2019-02-20T08:07:04.497Z,922.03
2019-02-20T08:08:04.487Z,922.00
2019-02-20T08:09:04.471Z,922.01
2019-02-20T08:10:04.460Z,921.92
2019-02-20T08:11:04.450Z,921.96
2019-02-20T08:12:04.441Z,921.94
2019-02-20T08:13:04.432Z,921.90
2019-02-20T08:14:04.424Z,921.93
2019-02-20T08:15:04.411Z,921.90
2019-02-20T08:16:04.404Z,921.93
2019-02-20T08:17:04.393Z,921.89
2019-02-20T08:18:04.385Z,921.91
2019-02-20T08:19:04.373Z,921.90
2019-02-20T08:20:04.363Z,921.95
2019-02-20T08:21:04.350Z,921.96
2019-02-20T08:22:04.337Z,921.94
2019-02-20T08:23:04.333Z,921.90
2019-02-20T08:24:04.313Z,921.94
2019-02-20T08:25:04.306Z,921.90
2019-02-20T08:26:04.291Z,921.90
2019-02-20T08:27:04.279Z,921.90
2019-02-20T08:28:04.281Z,921.95
2019-02-20T08:29:04.265Z,921.90
2019-02-20T08:30:04.246Z,921.92
2019-02-20T08:31:04.236Z,921.90
2019-02-20T08:32:04.238Z,921.98
2019-02-20T08:33:04.217Z,921.94
2019-02-20T08:34:04.212Z,921.91
2019-02-20T08:35:04.189Z,921.89
2019-02-20T08:36:04.280Z,921.91
2019-02-20T08:37:04.170Z,921.94
2019-02-20T08:38:04.257Z,921.92
2019-02-20T08:39:04.147Z,921.90
2019-02-20T08:40:04.137Z,921.89
2019-02-20T08:41:04.137Z,921.89
2019-02-20T08:42:04.113Z,921.90
2019-02-20T08:43:04.104Z,921.92
2019-02-20T08:44:04.095Z,921.89
2019-02-20T08:45:04.082Z,921.93
2019-02-20T08:46:04.070Z,921.92
2019-02-20T08:47:04.060Z,921.93
2019-02-20T08:48:04.053Z,921.84
2019-02-20T08:49:04.038Z,921.86
2019-02-20T08:50:04.040Z,921.81
2019-02-20T08:51:04.036Z,921.86
2019-02-20T08:52:04.014Z,921.90
2019-02-20T08:53:03.998Z,921.93
2019-02-20T08:54:04.603Z,921.92
2019-02-20T08:55:03.989Z,921.86
2019-02-20T08:56:03.969Z,921.85
2019-02-20T08:57:03.970Z,921.84
2019-02-20T08:58:03.944Z,921.82
2019-02-20T08:59:03.933Z,921.80
2019-02-20T09:00:03.976Z,921.84
2019-02-20T09:01:03.913Z,921.86
2019-02-20T09:02:03.903Z,921.86
2019-02-20T09:03:03.891Z,921.88
2019-02-20T09:04:03.881Z,921.84
2019-02-20T09:05:04.166Z,921.85
2019-02-20T09:06:03.860Z,921.86
2019-02-20T09:07:03.847Z,921.84
2019-02-20T09:08:03.943Z,921.94
2019-02-20T09:09:03.828Z,921.87
2019-02-20T09:10:03.816Z,921.94
2019-02-20T09:11:03.802Z,921.90
2019-02-20T09:12:03.795Z,921.90
2019-02-20T09:13:03.785Z,921.91
2019-02-20T09:14:03.772Z,921.89
2019-02-20T09:15:03.761Z,921.92
2019-02-20T09:16:03.752Z,921.89
2019-02-20T09:17:03.739Z,921.89
2019-02-20T09:18:03.736Z,921.87
2019-02-20T09:19:03.720Z,921.96
2019-02-20T09:20:03.709Z,921.94
2019-02-20T09:21:03.705Z,921.88
2019-02-20T09:22:03.686Z,921.89
2019-02-20T09:23:03.697Z,921.93
2019-02-20T09:24:03.665Z,921.92
2019-02-20T09:25:03.662Z,921.90
2019-02-20T09:26:03.650Z,921.85
2019-02-20T09:27:03.639Z,921.86
2019-02-20T09:28:03.624Z,921.86
2019-02-20T09:29:03.611Z,921.86
2019-02-20T09:30:03.603Z,921.81
2019-02-20T09:31:03.605Z,921.80
2019-02-20T09:32:03.581Z,921.79
2019-02-20T09:33:03.574Z,921.79
2019-02-20T09:34:03.561Z,921.77
2019-02-20T09:35:05.428Z,921.76
2019-02-20T09:36:03.541Z,921.81
2019-02-20T09:37:03.531Z,921.87
2019-02-20T09:38:03.518Z,921.84
2019-02-20T09:39:03.507Z,921.88
2019-02-20T09:40:03.500Z,921.90
2019-02-20T09:41:03.498Z,921.88
2019-02-20T09:42:03.475Z,921.91
2019-02-20T09:43:03.463Z,921.95
2019-02-20T09:44:03.455Z,921.96
2019-02-20T09:45:03.446Z,921.91
2019-02-20T09:46:03.437Z,921.87
2019-02-20T09:47:03.422Z,921.85
2019-02-20T09:48:03.414Z,921.89
2019-02-20T09:49:03.427Z,921.87
2019-02-20T09:50:03.392Z,921.91
2019-02-20T09:51:03.384Z,921.91
2019-02-20T09:52:03.374Z,921.88
2019-02-20T09:53:03.358Z,921.86
2019-02-20T09:54:03.561Z,921.90
2019-02-20T09:55:03.338Z,921.93
2019-02-20T09:56:03.330Z,921.90
2019-02-20T09:57:03.319Z,921.89
2019-02-20T09:58:03.312Z,921.91
2019-02-20T09:59:03.298Z,921.90
2019-02-20T10:00:03.294Z,921.93
2019-02-20T10:01:03.277Z,921.90
2019-02-20T10:02:03.273Z,921.86
2019-02-20T10:03:03.258Z,921.82
2019-02-20T10:04:03.244Z,921.81
2019-02-20T10:05:03.339Z,921.74
2019-02-20T10:06:03.322Z,921.75
2019-02-20T10:07:03.210Z,921.80
2019-02-20T10:08:04.543Z,921.81
2019-02-20T10:09:03.192Z,921.88
2019-02-20T10:10:03.177Z,921.99
2019-02-20T10:11:03.198Z,922.01
2019-02-20T10:12:03.158Z,922.03
2019-02-20T10:13:03.145Z,922.03
2019-02-20T10:14:03.136Z,921.98
2019-02-20T10:15:03.123Z,922.00
2019-02-20T10:16:03.125Z,921.96
2019-02-20T10:17:03.202Z,921.96
2019-02-20T10:18:03.093Z,921.94
2019-02-20T10:19:03.082Z,921.95
2019-02-20T10:20:03.073Z,921.96
2019-02-20T10:21:03.062Z,921.96
2019-02-20T10:22:03.053Z,921.98
2019-02-20T10:23:03.040Z,921.97
2019-02-20T10:24:03.030Z,921.91
2019-02-20T10:25:03.028Z,921.93
2019-02-20T10:26:03.016Z,921.93
2019-02-20T10:27:03.000Z,921.94
2019-02-20T10:28:02.996Z,921.96
2019-02-20T10:29:02.977Z,921.94
2019-02-20T10:30:02.964Z,921.93
2019-02-20T10:31:02.971Z,921.90
2019-02-20T10:32:02.943Z,921.91
2019-02-20T10:33:02.936Z,921.91
2019-02-20T10:34:02.927Z,921.95
2019-02-20T10:35:02.909Z,921.96
2019-02-20T10:36:02.898Z,921.97
2019-02-20T10:37:02.887Z,922.00
2019-02-20T10:38:02.877Z,921.99
2019-02-20T10:39:02.866Z,922.02
2019-02-20T10:40:02.858Z,921.98
2019-02-20T10:41:02.845Z,922.01
2019-02-20T10:42:02.834Z,921.99
2019-02-20T10:43:03.647Z,922.04
2019-02-20T10:44:02.810Z,921.97
2019-02-20T10:45:02.801Z,921.98
2019-02-20T10:46:02.791Z,921.95
2019-02-20T10:47:02.780Z,921.90
2019-02-20T10:48:02.768Z,921.83
2019-02-20T10:49:02.760Z,921.89
2019-02-20T10:50:02.747Z,921.90
2019-02-20T10:51:02.736Z,921.89
2019-02-20T10:52:02.725Z,921.95
2019-02-20T10:53:02.717Z,921.95
2019-02-20T10:54:02.703Z,921.96
2019-02-20T10:55:02.701Z,921.91
2019-02-20T10:56:09.090Z,921.94
2019-02-20T10:57:03.772Z,921.96
2019-02-20T10:58:02.661Z,921.90
2019-02-20T10:59:02.654Z,921.93
2019-02-20T11:00:02.639Z,921.93
2019-02-20T11:01:02.628Z,921.96
2019-02-20T11:02:02.619Z,921.94
2019-02-20T11:03:02.634Z,922.00
2019-02-20T11:04:03.816Z,921.95
2019-02-20T11:05:02.586Z,921.95
2019-02-20T11:06:02.676Z,921.96
2019-02-20T11:07:02.562Z,921.91
2019-02-20T11:08:02.556Z,921.99
2019-02-20T11:09:02.544Z,922.00
2019-02-20T11:10:02.533Z,922.06
2019-02-20T11:11:02.521Z,922.04
2019-02-20T11:12:02.510Z,922.08
2019-02-20T11:13:02.498Z,922.09
2019-02-20T11:14:02.491Z,922.13
2019-02-20T11:15:02.480Z,922.14
2019-02-20T11:16:02.467Z,922.16
2019-02-20T11:17:02.454Z,922.15
2019-02-20T11:18:02.444Z,922.22
2019-02-20T11:19:02.432Z,922.17
2019-02-20T11:20:02.424Z,922.20
2019-02-20T11:21:02.412Z,922.19
2019-02-20T11:22:02.406Z,922.20
2019-02-20T11:23:02.389Z,922.18
2019-02-20T11:24:02.379Z,922.24
2019-02-20T11:25:02.370Z,922.24
2019-02-20T11:26:02.357Z,922.23
2019-02-20T11:27:02.348Z,922.22
2019-02-20T11:28:02.334Z,922.26
2019-02-20T11:29:02.328Z,922.24
2019-02-20T11:30:02.620Z,922.23
2019-02-20T11:31:02.305Z,922.28
2019-02-20T11:32:02.309Z,922.36
2019-02-20T11:33:03.425Z,922.36
2019-02-20T11:34:02.272Z,922.36
2019-02-20T11:35:02.260Z,922.45
2019-02-20T11:36:02.252Z,922.47
2019-02-20T11:37:02.240Z,922.44
2019-02-20T11:38:02.227Z,922.43
2019-02-20T11:39:02.224Z,922.35
2019-02-20T11:40:02.205Z,922.39
2019-02-20T11:41:02.194Z,922.36
2019-02-20T11:42:02.182Z,922.40
2019-02-20T11:43:02.173Z,922.40
2019-02-20T11:44:02.160Z,922.46
2019-02-20T11:45:02.149Z,922.47
2019-02-20T11:46:02.143Z,922.43
2019-02-20T11:47:02.128Z,922.46
2019-02-20T11:48:02.120Z,922.48
2019-02-20T11:49:02.105Z,922.47
2019-02-20T11:50:02.094Z,922.52
2019-02-20T11:51:02.081Z,922.52
2019-02-20T11:52:02.077Z,922.54
2019-02-20T11:53:02.065Z,922.54
2019-02-20T11:54:02.052Z,922.57
2019-02-20T11:55:02.041Z,922.52
2019-02-20T11:56:02.030Z,922.50
2019-02-20T11:57:02.017Z,922.48
2019-02-20T11:58:02.007Z,922.50
2019-02-20T11:59:02.001Z,922.50
2019-02-20T12:00:01.987Z,922.53
2019-02-20T12:01:01.973Z,922.59
2019-02-20T12:02:01.962Z,922.57
2019-02-20T12:03:01.956Z,922.58
2019-02-20T12:04:01.940Z,922.62
2019-02-20T12:05:01.934Z,922.59
2019-02-20T12:06:01.919Z,922.63
2019-02-20T12:07:02.058Z,922.63
2019-02-20T12:08:01.898Z,922.66
2019-02-20T12:09:01.886Z,922.66
2019-02-20T12:10:01.876Z,922.63
2019-02-20T12:11:01.871Z,922.65
2019-02-20T12:12:01.853Z,922.73
2019-02-20T12:13:01.842Z,922.71
2019-02-20T12:14:01.833Z,922.74
2019-02-20T12:15:01.865Z,922.74
2019-02-20T12:16:01.809Z,922.74
2019-02-20T12:17:01.797Z,922.79
2019-02-20T12:18:01.787Z,922.81
2019-02-20T12:19:01.774Z,922.82
2019-02-20T12:20:01.765Z,922.81
2019-02-20T12:21:01.754Z,922.76
2019-02-20T12:22:01.742Z,922.76
2019-02-20T12:23:01.733Z,922.75
2019-02-20T12:24:01.721Z,922.69
2019-02-20T12:25:01.710Z,922.73
2019-02-20T12:26:01.698Z,922.75
2019-02-20T12:27:01.707Z,922.76
2019-02-20T12:28:02.782Z,922.73
2019-02-20T12:29:01.668Z,922.74
2019-02-20T12:30:01.657Z,922.69
2019-02-20T12:31:01.646Z,922.77
2019-02-20T12:32:01.639Z,922.75
2019-02-20T12:33:01.624Z,922.74
2019-02-20T12:34:01.722Z,922.76
2019-02-20T12:35:01.601Z,922.74
2019-02-20T12:36:01.593Z,922.79
2019-02-20T12:37:01.579Z,922.83
2019-02-20T12:38:02.526Z,922.82
2019-02-20T12:39:01.560Z,922.80
2019-02-20T12:40:01.951Z,922.77
2019-02-20T12:41:01.538Z,922.81
2019-02-20T12:42:01.527Z,922.80
2019-02-20T12:43:01.515Z,922.84
2019-02-20T12:44:01.505Z,922.80
2019-02-20T12:45:01.496Z,922.87
2019-02-20T12:46:01.490Z,922.91